• Join FlightAware (Why Join?)
  • Login
  • US Flag 
10:32PM EST


 

Airport Tracker/Info


-or-


 

Live Flight TrackerFlight Track Log ✈ RPA3275 ✈ 13-Jun-2013 ✈ KALB - KPHL

Flight Track Log - Related Links

Times and Time Zones

All times are in EDT time to prevent confusion due to time zone crossing. See the RPA3275 flight status page for this flight to view local times or setup timezone preferences in your user account.

Time Position Orientation Groundspeed Altitude Reporting Facility
EDT Latitude Longitude Course Direction KTS MPH feet Rate Location/Type
07:03AM 42.7672 -73.8061 347° North 152 175 1,300  Level Boston Center
07:04AM 42.8275 -73.8244 347° North 241 277 3,200 1,980 Climbing Boston Center
07:05AM 42.8244 -73.9150 267° West 242 278 5,800 2,940 Climbing Boston Center
07:06AM 42.8022 -74.0133 253° West 257 296 9,500 3,600 Climbing Boston Center
07:07AM 42.7447 -74.0939 226° Southwest 283 326 13,000 3,240 Climbing Boston Center
07:08AM 42.6828 -74.1911 229° Southwest 309 356 16,000 1,500 Climbing Boston Center
07:09AM 42.6317 -74.2717 229° Southwest 314 361 16,000 -60 Level Boston Center
07:10AM 42.5675 -74.3683 228° Southwest 319 367 15,900 -60 Descending Boston Center
07:11AM 42.5139 -74.4511 229° Southwest 319 367 15,900  Level Boston Center
07:12AM 42.4497 -74.5475 228° Southwest 324 373 15,900  Level Boston Center
07:13AM 42.3961 -74.6272 228° Southwest 329 379 15,900  Level Boston Center
07:15AM 42.2642 -74.8283 228° Southwest 335 386 15,900  Level New York Center
07:16AM 42.2003 -74.9250 228° Southwest 341 392 15,900  Level New York Center
07:17AM 42.1289 -75.0017 219° Southwest 351 404 15,900  Level New York Center
07:18AM 42.0389 -75.0769 212° Southwest 359 413 15,900  Level New York Center
07:19AM 41.9617 -75.1386 211° Southwest 359 413 15,900  Level New York Center
07:20AM 41.8800 -75.2058 212° Southwest 364 419 15,900 -360 Level New York Center
07:21AM 41.7836 -75.2828 211° Southwest 364 419 15,300 -780 Descending New York Center
07:22AM 41.7039 -75.3497 212° Southwest 359 413 14,400 -900 Descending New York Center
07:23AM 41.6289 -75.4083 210° Southwest 354 407 13,500 -960 Descending New York Center
07:24AM 41.5469 -75.4747 211° Southwest 354 407 12,600 -840 Descending New York Center
07:25AM 41.4589 -75.5433 210° Southwest 349 402 11,900 -360 Descending New York Center
07:26AM 41.3814 -75.6069 212° Southwest 344 396 11,900  Level New York Center
07:27AM 41.3125 -75.6572 209° Southwest 337 388 11,900  Level New York Center
07:28AM 41.2258 -75.6922 197° South 311 358 11,900  Level New York Center
07:29AM 41.1406 -75.6861 177° South 318 366 11,900  Level New York Center
07:30AM 41.0503 -75.6547 165° South 334 384 11,900  Level New York Center
07:31AM 40.9597 -75.6236 165° South 334 384 11,900  Level New York Center
07:32AM 40.8592 -75.5861 164° South 334 384 11,900  Level New York Center
07:33AM 40.7711 -75.5525 164° South 334 384 11,900  Level New York Center
07:34AM 40.6808 -75.5189 164° South 339 390 11,900  Level New York Center
07:35AM 40.5861 -75.4850 165° South 339 390 12,000 -600 Climbing New York Center
07:36AM 40.5022 -75.4519 163° South 332 382 10,800 -1,380 Descending New York Center
07:37AM 40.4242 -75.4167 161° South 312 359 9,300 -1,620 Descending New York Center
07:38AM 40.3508 -75.3764 157° South 295 339 7,700 -1,200 Descending New York Center
07:39AM 40.2878 -75.3394 156° South 285 328 7,000 -660 Descending New York Center
07:40AM 40.2217 -75.3786 204° Southwest 243 280 6,400 -540 Descending New York Center
07:41AM 40.1708 -75.4458 225° Southwest 253 291 6,000 -240 Descending New York Center
07:42AM 40.1231 -75.4997 221° Southwest 259 298 6,000  Level New York Center
07:43AM 40.0414 -75.5075 184° South 259 298 6,000 -660 Level New York Center
07:44AM 39.9703 -75.5108 182° South 259 298 4,700 -1,380 Descending New York Center
07:45AM 39.9094 -75.5203 187° South 251 289 3,300 -1,200 Descending New York Center
07:45AM 39.8667 -75.5000 160° South 207 238 3,000 -540 Descending Philadelphia TRACON
07:46AM 39.8333 -75.4833 159° South 172 198 2,600 -480 Descending Philadelphia TRACON